»·PEaware :: N516DM KSNA-KSBA

N516DM :: KSNA-KSBA

FLIGHT INFORMATION

Flight Status: Arrived
Operator: Privately registered:
United States
More flights under this callsign
Pilot: Thomas H. (5912)
Aircraft: PIPER PA-28 CHEROKEE ARCHER
(P28A)
More flights by this aircraft type
Origin: KSNA John Wayne-Orange Co
United States
Destination: KSBA Santa Barbara Mun
United States
More flights between these airports :: More routes between these airports
Route: +SLI V23 LAX V299 VTU VTU282R KWANG
File this flight plan on PilotEdge
Remarks: TEC route CSTP21
Altitude:
(Current/Filed)
6,000ft
Speed:
(Current/Filed)
115kts
Departed: 06-Feb-19 11:28 AM
Arrived: 06-Feb-19 12:37 PM
Distance/Time
Traveled:
108nm/1:09
Distance/Time
To Go:
Arrived

Flight Plot

Page will automatically refresh every two minutes.


Map Options




Map Legend


Flown Route
Filed Route
Departure Airport
Arrival Airport
Navaid (VOR, NDB)
Fix

Horizontal Profiles

Position Reports

Time Latitude Longitude Heading Altitude Ground
Speed
06-Feb-19 11:12 33.671189 -117.868027 211 59ft 0kts
06-Feb-19 11:13 33.671189 -117.868027 211 59ft 0kts
06-Feb-19 11:14 33.671189 -117.868027 211 59ft 0kts
06-Feb-19 11:15 33.671189 -117.868027 211 59ft 0kts
06-Feb-19 11:16 33.671189 -117.868027 211 59ft 0kts
06-Feb-19 11:18 33.671189 -117.868027 211 59ft 0kts
06-Feb-19 11:19 33.671189 -117.868027 211 59ft 0kts
06-Feb-19 11:20 33.671189 -117.868027 211 59ft 0kts
06-Feb-19 11:21 33.671189 -117.868027 211 59ft 0kts
06-Feb-19 11:22 33.671189 -117.868027 211 59ft 0kts
06-Feb-19 11:23 33.671026 -117.868275 262 59ft 7kts
06-Feb-19 11:24 33.673289 -117.867025 31 59ft 11kts
06-Feb-19 11:25 33.676233 -117.865733 27 59ft 13kts
06-Feb-19 11:26 33.679669 -117.863553 29 59ft 9kts
06-Feb-19 11:27 33.679987 -117.863635 291 59ft 0kts
06-Feb-19 11:28 33.678718 -117.865066 207 59ft 44kts
06-Feb-19 11:29 33.659358 -117.880717 224 811ft 94kts
06-Feb-19 11:30 33.639206 -117.900602 223 1773ft 94kts
06-Feb-19 11:31 33.619363 -117.920641 224 2681ft 94kts
06-Feb-19 11:32 33.599100 -117.940500 221 3551ft 98kts
06-Feb-19 11:33 33.600233 -117.964212 320 4231ft 103kts
06-Feb-19 11:34 33.624457 -117.987571 320 4078ft 110kts
06-Feb-19 11:35 33.646826 -118.009736 320 4489ft 98kts
06-Feb-19 11:36 33.667803 -118.031305 317 5152ft 97kts
06-Feb-19 11:37 33.684826 -118.056016 311 5774ft 93kts
06-Feb-19 11:37 33.698337 -118.076755 312 6026ft 103kts
06-Feb-19 11:38 33.716405 -118.103597 312 6021ft 102kts
06-Feb-19 11:39 33.734392 -118.130400 312 6019ft 102kts
06-Feb-19 11:41 33.755792 -118.161490 312 6020ft 104kts
06-Feb-19 11:41 33.771068 -118.183474 312 6021ft 103kts
06-Feb-19 11:42 33.789409 -118.210259 311 6019ft 104kts
06-Feb-19 11:43 33.807331 -118.236470 312 6022ft 101kts
06-Feb-19 11:44 33.824123 -118.261052 313 6019ft 102kts
06-Feb-19 11:45 33.841428 -118.288083 295 6017ft 103kts
06-Feb-19 11:46 33.850635 -118.321128 294 6018ft 103kts
06-Feb-19 11:47 33.861241 -118.352914 317 6021ft 103kts
06-Feb-19 11:48 33.880987 -118.375503 319 6019ft 101kts
06-Feb-19 11:49 33.901749 -118.398228 319 5995ft 101kts
06-Feb-19 11:50 33.922609 -118.420616 320 5990ft 100kts
06-Feb-19 11:51 33.937954 -118.448875 297 5991ft 104kts
06-Feb-19 11:52 33.948765 -118.481033 298 5992ft 105kts
06-Feb-19 11:53 33.959386 -118.513396 297 5992ft 103kts
06-Feb-19 11:54 33.968943 -118.543230 297 5988ft 103kts
06-Feb-19 11:55 33.978362 -118.572468 297 5992ft 103kts
06-Feb-19 11:56 33.988546 -118.604573 296 5991ft 102kts
06-Feb-19 11:57 33.998747 -118.636800 297 5989ft 103kts
06-Feb-19 11:58 34.009140 -118.669134 297 5995ft 105kts
06-Feb-19 11:59 34.019667 -118.702348 295 5992ft 105kts
06-Feb-19 12:00 34.030031 -118.735287 297 5994ft 104kts
06-Feb-19 12:01 34.040178 -118.768007 294 5993ft 104kts
06-Feb-19 12:02 34.049167 -118.801309 295 5991ft 104kts
06-Feb-19 12:03 34.058304 -118.835176 294 5948ft 108kts
06-Feb-19 12:04 34.067340 -118.869214 294 5954ft 104kts
06-Feb-19 12:05 34.076306 -118.902585 295 5952ft 105kts
06-Feb-19 12:06 34.085127 -118.935990 295 5950ft 104kts
06-Feb-19 12:07 34.094042 -118.969180 294 5949ft 104kts
06-Feb-19 12:08 34.103079 -119.002915 295 5934ft 102kts
06-Feb-19 12:09 34.111796 -119.035856 295 5934ft 102kts
06-Feb-19 12:10 34.123160 -119.067236 302 5929ft 100kts
06-Feb-19 12:11 34.135642 -119.097594 302 5930ft 102kts
06-Feb-19 12:12 34.148285 -119.127827 303 5933ft 100kts
06-Feb-19 12:13 34.160863 -119.158016 301 5934ft 100kts
06-Feb-19 12:14 34.173338 -119.187856 302 5930ft 99kts
06-Feb-19 12:15 34.185788 -119.217769 303 5931ft 100kts
06-Feb-19 12:16 34.198337 -119.247707 303 5929ft 99kts
06-Feb-19 12:17 34.210690 -119.277310 303 5930ft 97kts
06-Feb-19 12:18 34.222803 -119.306403 304 5867ft 99kts
06-Feb-19 12:19 34.236188 -119.338496 301 5266ft 110kts
06-Feb-19 12:20 34.249856 -119.371392 301 4698ft 108kts
06-Feb-19 12:21 34.263354 -119.403654 301 4098ft 106kts
06-Feb-19 12:22 34.275960 -119.434118 301 3951ft 98kts
06-Feb-19 12:23 34.288191 -119.463714 302 3951ft 97kts
06-Feb-19 12:24 34.300598 -119.493285 302 3950ft 99kts
06-Feb-19 12:25 34.308969 -119.527612 288 3387ft 109kts
06-Feb-19 12:26 34.315658 -119.563226 288 2822ft 102kts
06-Feb-19 12:27 34.321303 -119.595480 290 2772ft 98kts
06-Feb-19 12:28 34.328651 -119.628152 293 2732ft 97kts
06-Feb-19 12:29 34.337746 -119.659677 297 2684ft 99kts
06-Feb-19 12:30 34.348845 -119.691854 295 2276ft 108kts
06-Feb-19 12:31 34.358952 -119.725268 292 2167ft 107kts
06-Feb-19 12:32 34.366466 -119.761012 289 2090ft 108kts
06-Feb-19 12:33 34.375031 -119.796794 291 1841ft 113kts
06-Feb-19 12:34 34.389405 -119.823985 325 1135ft 86kts
06-Feb-19 12:35 34.410854 -119.834229 344 400ft 70kts
06-Feb-19 12:36 34.424426 -119.838438 348 13ft 27kts
06-Feb-19 12:37 34.428969 -119.838905 87 13ft 10kts
06-Feb-19 12:38 34.429885 -119.835320 358 12ft 11kts
06-Feb-19 12:39 34.432323 -119.835556 331 13ft 0kts

Navigation Log

Ident Type
Flight plan parsing failed, navigation log unavailable